logo
Rechercher aéroport 
image banner adimage banner adimage banner ad
image banner ad

ED0615 - Erkelenz-Kueckhoven

Situé à Kuckhoven, Germany

ICAO - , IATA -

Données fournies par Airmate  

Information générale

Coordonnées: N51°3'53" E6°21'35"
Élévation : 281 feet MSL.
 
Voir autres Aéroports à North Rhine-Westphalia

Données opérationnelles

Special qualification required
Heure actuelle UTC:
Heure actuelle locale:
Météo à : EDLN - Moenchengladbach ( 21 km )
METAR: EDLN 152020Z AUTO 11004KT 9999 // OVC120/// 21/17 Q1007
TAF: TAF EDLN 151700Z 1518/1603 08006KT CAVOK BECMG 1519/1522 21006KT TEMPO 1519/1521 18011KT SHRA BKN040TCU PROB30 TEMPO 1519/1522 18015G25KT TSRA BKN020CB
Voir NOTAMs / SUP AIP / TFR affectant cet aéroport [VIEW]
Fréquences de communication: [VIEW]

Pistes:

Identifiant RWYQFULongueur (ft)Largeur (ft)SurfaceLDA (ft)
16160°165766GRASS
34340°165766GRASS

Coordonnées de l'aéroport

Adresse: Kuckhoven Germany

Vue satellite de ED0615